Share

Mount Sterling, KY

Old Fogg Pike (KKYMOUNT6) Elev 1032 ft | 38.03 °N, 83.97 °W | Change Station

Current weather conditions updated 0 second ago

Clear
Clear
75.2 °F
Feels Like 78 °F
N
4.0
Wind Variable Wind from West
Gusts 4.0 mph
Sunrise 6:52 AM
Sunset 8:17 PM
Moon Waning Gibbous

Today is forecast to be nearly the same temperature as yesterday. A few showers developing late tonight.

Pressure 30.05 in
Visibility 10.0 miles
Clouds Clear
Heat Index 78 °F
Dew Point 50 °F
Humidity 41%
Rainfall 0.00 in
Snow Depth Not available.
UV 9 out of 16
Pollen 10.80 out of 12
Air Quality Not available.
Flu Activity Sporadic
METAR KJKL 211553Z AUTO 00000KT 10SM CLR 24/05 A3009 RMK AO2 SLP176 T02440050

More Conditions Fewer Conditions

Pressure 30.05 in
Visibility 10.0 miles
Clouds Clear
Heat Index 78 °F
Dew Point 50 °F
Humidity 41%
Rainfall 0.00 in
Snow Depth Not available.
UV 9 out of 16
Pollen 10.80 out of 12
Air Quality Not available.
Flu Activity Sporadic
METAR KJKL 211553Z AUTO 00000KT 10SM CLR 24/05 A3009 RMK AO2 SLP176 T02440050

More Conditions Fewer Conditions

10-Day Weather Forecast

Almanac

Astronomy

Apr. 21, 2014 Rise Set
Actual Time 6:52 AM EDT 8:17 PM EDT
Civil Twilight 6:24 AM EDT 8:45 PM EDT
Nautical Twilight 5:51 AM EDT 9:18 PM EDT
Astronomical Twilight 5:16 AM EDT 9:53 PM EDT
Moon 1:45 AM EDT 12:18 PM EDT
Length of Visible Light 14h 20m
Length of Day
13h 25m
Tomorrow will be 2m 15s longer.
Waning Gibbous, 58% of the Moon is Illuminated
Today
Waning Gibbous
Apr 22
Last Quarter
Apr 29
New
May 6
First Quarter
May 14
Full

Today's Extremes

State Highs State Lows

Community

  • Bright Eyes
    Bright Eyes
  • Snowy Robin
    Snowy Robin
  • Spring Crocus
    Spring Crocus
  • Sun Pillar and Geese
    Sun Pillar and Geese
  • Showers on the Way
    Showers on the Way

WunderPhotos

Upload Photos

1,703,667 photos uploaded!

Nearby

Snow Depth

Station Depth Elevation
No new snow has been reported.

Coastal Water Temperatures

Place Temperature
No Stations Reporting

Earthquake Activity

City Distance Mag. Time & Date
No recent earthquake activity has been reported nearby.
Minimum magnitude displayed is 2.5.

Nearby Weather Stations

Station Location Temp. Heat Index Dew Point Humidity Wind Precip. Elev Updated Type
Old Fogg Pike, Mount Sterling, KY 75.2 °F 78 °F 50 °F 41% West  at  4.0 mph 0.00 in / hr 1032 ft 11:58 AM EDT Rapid Fire
Ridge Road Jet Center, Owingsville, KY 74.7 °F 78 °F 52 °F 46% South  at  8.9 mph - / hr 899 ft 11:52 AM EDT Normal
Ruckerville, Winchester, KY 73.3 °F 77 °F 50 °F 44% WNW  at  3.0 mph 0.00 in / hr 1007 ft 11:55 AM EDT Normal
SLOAN, Irvine, KY 77.9 °F 79 °F 51 °F 39% NNW  at  2.2 mph - / hr 791 ft 11:44 AM EDT Normal

Show More Stations Show Fewer Stations

What do you think?

We're not finished. Please let us know what you like, what you don't like, and what you are still missing.